sensor_id;sensor_type;location;lat;lon;timestamp;P1;durP1;ratioP1;P2;durP2;ratioP2
10088;SDS011;51898;49.864;8.550;2023-06-22T00:00:15;14.20;;;12.40;;
10088;SDS011;51898;49.864;8.550;2023-06-22T00:03:17;14.07;;;12.60;;
10088;SDS011;51898;49.864;8.550;2023-06-22T00:06:20;14.70;;;12.67;;
10088;SDS011;51898;49.864;8.550;2023-06-22T00:09:21;14.40;;;12.13;;
10088;SDS011;51898;49.864;8.550;2023-06-22T00:12:23;14.47;;;12.17;;
10088;SDS011;51898;49.864;8.550;2023-06-22T00:15:25;13.30;;;11.60;;
10088;SDS011;51898;49.864;8.550;2023-06-22T00:18:27;14.33;;;12.83;;
10088;SDS011;51898;49.864;8.550;2023-06-22T00:21:29;13.70;;;12.30;;
10088;SDS011;51898;49.864;8.550;2023-06-22T00:24:31;14.83;;;11.80;;
10088;SDS011;51898;49.864;8.550;2023-06-22T00:27:33;12.80;;;11.50;;
10088;SDS011;51898;49.864;8.550;2023-06-22T00:30:36;12.77;;;11.47;;
10088;SDS011;51898;49.864;8.550;2023-06-22T00:33:37;14.10;;;11.27;;
10088;SDS011;51898;49.864;8.550;2023-06-22T00:36:39;12.20;;;10.97;;
10088;SDS011;51898;49.864;8.550;2023-06-22T00:39:44;12.20;;;10.17;;
10088;SDS011;51898;49.864;8.550;2023-06-22T00:42:46;11.60;;;10.43;;
10088;SDS011;51898;49.864;8.550;2023-06-22T00:45:48;10.37;;;9.33;;
10088;SDS011;51898;49.864;8.550;2023-06-22T00:48:50;12.77;;;9.57;;
10088;SDS011;51898;49.864;8.550;2023-06-22T00:51:53;11.53;;;10.10;;
10088;SDS011;51898;49.864;8.550;2023-06-22T00:54:55;10.77;;;9.67;;
10088;SDS011;51898;49.864;8.550;2023-06-22T00:57:58;11.27;;;9.10;;
10088;SDS011;51898;49.864;8.550;2023-06-22T01:00:59;16.03;;;10.17;;
10088;SDS011;51898;49.864;8.550;2023-06-22T01:04:02;10.10;;;9.10;;
10088;SDS011;51898;49.864;8.550;2023-06-22T01:07:28;10.30;;;9.40;;
10088;SDS011;51898;49.864;8.550;2023-06-22T01:10:35;11.33;;;9.83;;
10088;SDS011;51898;49.864;8.550;2023-06-22T01:13:48;10.53;;;9.23;;
10088;SDS011;51898;49.864;8.550;2023-06-22T01:16:51;12.27;;;10.03;;
10088;SDS011;51898;49.864;8.550;2023-06-22T01:19:55;16.53;;;10.87;;
10088;SDS011;51898;49.864;8.550;2023-06-22T01:29:44;12.50;;;11.27;;
10088;SDS011;51898;49.864;8.550;2023-06-22T01:32:47;12.73;;;11.43;;
10088;SDS011;51898;49.864;8.550;2023-06-22T01:35:50;14.80;;;12.60;;
10088;SDS011;51898;49.864;8.550;2023-06-22T01:38:52;13.33;;;11.93;;
10088;SDS011;51898;49.864;8.550;2023-06-22T01:41:54;12.80;;;11.60;;
10088;SDS011;51898;49.864;8.550;2023-06-22T01:44:57;13.70;;;12.27;;
10088;SDS011;51898;49.864;8.550;2023-06-22T01:48:00;19.77;;;13.93;;
10088;SDS011;51898;49.864;8.550;2023-06-22T01:51:02;17.10;;;12.97;;
10088;SDS011;51898;49.864;8.550;2023-06-22T01:54:05;16.10;;;13.00;;
10088;SDS011;51898;49.864;8.550;2023-06-22T01:57:07;14.77;;;13.13;;
10088;SDS011;51898;49.864;8.550;2023-06-22T02:00:12;16.07;;;14.37;;
10088;SDS011;51898;49.864;8.550;2023-06-22T02:03:19;18.90;;;14.07;;
10088;SDS011;51898;49.864;8.550;2023-06-22T02:06:29;20.90;;;14.37;;
10088;SDS011;51898;49.864;8.550;2023-06-22T02:09:38;15.97;;;13.60;;
10088;SDS011;51898;49.864;8.550;2023-06-22T02:12:43;14.17;;;12.70;;
10088;SDS011;51898;49.864;8.550;2023-06-22T02:15:45;18.03;;;14.10;;
10088;SDS011;51898;49.864;8.550;2023-06-22T02:18:48;16.50;;;14.47;;
10088;SDS011;51898;49.864;8.550;2023-06-22T02:21:54;15.20;;;13.57;;
10088;SDS011;51898;49.864;8.550;2023-06-22T02:24:56;16.40;;;13.83;;
10088;SDS011;51898;49.864;8.550;2023-06-22T02:27:57;16.20;;;14.50;;
10088;SDS011;51898;49.864;8.550;2023-06-22T02:30:59;15.37;;;13.87;;
10088;SDS011;51898;49.864;8.550;2023-06-22T02:34:01;15.43;;;13.90;;
10088;SDS011;51898;49.864;8.550;2023-06-22T02:37:02;16.27;;;14.37;;
10088;SDS011;51898;49.864;8.550;2023-06-22T02:40:05;17.97;;;15.23;;
10088;SDS011;51898;49.864;8.550;2023-06-22T02:43:09;16.73;;;14.10;;
10088;SDS011;51898;49.864;8.550;2023-06-22T02:46:12;15.67;;;13.97;;
10088;SDS011;51898;49.864;8.550;2023-06-22T02:49:14;17.20;;;15.40;;
10088;SDS011;51898;49.864;8.550;2023-06-22T02:52:16;16.93;;;15.10;;
10088;SDS011;51898;49.864;8.550;2023-06-22T02:55:18;16.80;;;15.10;;
10088;SDS011;51898;49.864;8.550;2023-06-22T02:58:19;16.90;;;15.10;;
10088;SDS011;51898;49.864;8.550;2023-06-22T03:01:21;18.00;;;14.90;;
10088;SDS011;51898;49.864;8.550;2023-06-22T03:04:25;17.10;;;15.30;;
10088;SDS011;51898;49.864;8.550;2023-06-22T03:07:27;31.97;;;16.37;;
10088;SDS011;51898;49.864;8.550;2023-06-22T03:10:31;18.13;;;15.80;;
10088;SDS011;51898;49.864;8.550;2023-06-22T03:13:33;17.00;;;15.10;;
10088;SDS011;51898;49.864;8.550;2023-06-22T03:16:34;20.23;;;15.53;;
10088;SDS011;51898;49.864;8.550;2023-06-22T03:19:36;19.17;;;16.97;;
10088;SDS011;51898;49.864;8.550;2023-06-22T03:22:38;18.30;;;16.40;;
10088;SDS011;51898;49.864;8.550;2023-06-22T03:25:41;22.50;;;17.03;;
10088;SDS011;51898;49.864;8.550;2023-06-22T03:28:46;21.63;;;16.10;;
10088;SDS011;51898;49.864;8.550;2023-06-22T03:31:47;18.40;;;16.47;;
10088;SDS011;51898;49.864;8.550;2023-06-22T03:34:49;19.73;;;16.83;;
10088;SDS011;51898;49.864;8.550;2023-06-22T03:37:51;18.27;;;16.47;;
10088;SDS011;51898;49.864;8.550;2023-06-22T03:40:53;19.30;;;17.30;;
10088;SDS011;51898;49.864;8.550;2023-06-22T03:43:55;21.23;;;18.67;;
10088;SDS011;51898;49.864;8.550;2023-06-22T03:46:56;21.27;;;17.53;;
10088;SDS011;51898;49.864;8.550;2023-06-22T03:49:58;19.40;;;17.40;;
10088;SDS011;51898;49.864;8.550;2023-06-22T03:52:59;20.03;;;17.37;;
10088;SDS011;51898;49.864;8.550;2023-06-22T03:56:01;21.20;;;17.33;;
10088;SDS011;51898;49.864;8.550;2023-06-22T03:59:03;18.80;;;16.90;;
10088;SDS011;51898;49.864;8.550;2023-06-22T04:02:04;21.23;;;17.77;;
10088;SDS011;51898;49.864;8.550;2023-06-22T04:05:06;22.33;;;18.90;;
10088;SDS011;51898;49.864;8.550;2023-06-22T04:08:09;20.23;;;18.13;;
10088;SDS011;51898;49.864;8.550;2023-06-22T04:11:11;19.73;;;17.73;;
10088;SDS011;51898;49.864;8.550;2023-06-22T04:14:13;18.97;;;17.07;;
10088;SDS011;51898;49.864;8.550;2023-06-22T04:17:15;19.77;;;17.77;;
10088;SDS011;51898;49.864;8.550;2023-06-22T04:20:17;21.20;;;18.23;;
10088;SDS011;51898;49.864;8.550;2023-06-22T04:23:19;19.90;;;17.57;;
10088;SDS011;51898;49.864;8.550;2023-06-22T04:26:21;20.00;;;17.00;;
10088;SDS011;51898;49.864;8.550;2023-06-22T04:29:22;20.20;;;16.87;;
10088;SDS011;51898;49.864;8.550;2023-06-22T04:32:30;18.30;;;16.30;;
10088;SDS011;51898;49.864;8.550;2023-06-22T04:35:31;18.83;;;16.90;;
10088;SDS011;51898;49.864;8.550;2023-06-22T04:38:33;22.00;;;16.53;;
10088;SDS011;51898;49.864;8.550;2023-06-22T04:41:35;19.37;;;17.27;;
10088;SDS011;51898;49.864;8.550;2023-06-22T04:44:43;21.73;;;16.67;;
10088;SDS011;51898;49.864;8.550;2023-06-22T04:47:45;18.53;;;16.43;;
10088;SDS011;51898;49.864;8.550;2023-06-22T04:50:47;19.03;;;16.07;;
10088;SDS011;51898;49.864;8.550;2023-06-22T04:53:49;19.93;;;17.33;;
10088;SDS011;51898;49.864;8.550;2023-06-22T04:56:50;19.90;;;17.10;;
10088;SDS011;51898;49.864;8.550;2023-06-22T05:00:01;19.00;;;17.03;;
10088;SDS011;51898;49.864;8.550;2023-06-22T05:03:12;18.77;;;16.77;;
10088;SDS011;51898;49.864;8.550;2023-06-22T05:06:21;18.70;;;16.70;;
10088;SDS011;51898;49.864;8.550;2023-06-22T05:09:25;23.87;;;17.40;;
10088;SDS011;51898;49.864;8.550;2023-06-22T05:12:27;19.53;;;17.53;;
10088;SDS011;51898;49.864;8.550;2023-06-22T05:15:30;18.17;;;16.27;;
10088;SDS011;51898;49.864;8.550;2023-06-22T05:18:37;19.70;;;17.70;;
10088;SDS011;51898;49.864;8.550;2023-06-22T05:21:39;19.70;;;17.63;;
10088;SDS011;51898;49.864;8.550;2023-06-22T05:24:41;19.37;;;17.37;;
10088;SDS011;51898;49.864;8.550;2023-06-22T05:27:43;17.30;;;15.47;;
10088;SDS011;51898;49.864;8.550;2023-06-22T05:30:45;18.77;;;16.17;;
10088;SDS011;51898;49.864;8.550;2023-06-22T05:33:47;19.20;;;16.90;;
10088;SDS011;51898;49.864;8.550;2023-06-22T05:36:50;18.40;;;15.60;;
10088;SDS011;51898;49.864;8.550;2023-06-22T05:39:51;19.60;;;16.10;;
10088;SDS011;51898;49.864;8.550;2023-06-22T05:42:53;17.53;;;15.60;;
10088;SDS011;51898;49.864;8.550;2023-06-22T05:45:55;18.10;;;15.87;;
10088;SDS011;51898;49.864;8.550;2023-06-22T05:48:56;16.70;;;15.00;;
10088;SDS011;51898;49.864;8.550;2023-06-22T05:51:59;17.63;;;15.80;;
10088;SDS011;51898;49.864;8.550;2023-06-22T05:55:02;16.40;;;14.70;;
10088;SDS011;51898;49.864;8.550;2023-06-22T05:58:03;20.80;;;14.93;;
10088;SDS011;51898;49.864;8.550;2023-06-22T06:01:05;16.50;;;14.90;;
10088;SDS011;51898;49.864;8.550;2023-06-22T06:04:07;16.93;;;15.13;;
10088;SDS011;51898;49.864;8.550;2023-06-22T06:07:11;19.63;;;15.10;;
10088;SDS011;51898;49.864;8.550;2023-06-22T06:10:13;16.80;;;14.73;;
10088;SDS011;51898;49.864;8.550;2023-06-22T06:13:15;17.83;;;13.53;;
10088;SDS011;51898;49.864;8.550;2023-06-22T06:16:16;16.23;;;14.27;;
10088;SDS011;51898;49.864;8.550;2023-06-22T06:19:18;15.27;;;13.90;;
10088;SDS011;51898;49.864;8.550;2023-06-22T06:22:20;14.33;;;12.93;;
10088;SDS011;51898;49.864;8.550;2023-06-22T06:25:22;14.27;;;12.77;;
10088;SDS011;51898;49.864;8.550;2023-06-22T06:28:24;14.40;;;12.90;;
10088;SDS011;51898;49.864;8.550;2023-06-22T06:31:26;14.37;;;12.97;;
10088;SDS011;51898;49.864;8.550;2023-06-22T06:34:29;14.90;;;13.33;;
10088;SDS011;51898;49.864;8.550;2023-06-22T06:37:31;14.77;;;13.20;;
10088;SDS011;51898;49.864;8.550;2023-06-22T06:40:33;15.73;;;14.03;;
10088;SDS011;51898;49.864;8.550;2023-06-22T06:43:35;14.27;;;12.97;;
10088;SDS011;51898;49.864;8.550;2023-06-22T06:46:37;14.33;;;12.93;;
10088;SDS011;51898;49.864;8.550;2023-06-22T06:49:39;13.23;;;12.00;;
10088;SDS011;51898;49.864;8.550;2023-06-22T06:52:40;15.30;;;12.10;;
10088;SDS011;51898;49.864;8.550;2023-06-22T06:55:42;13.40;;;12.00;;
10088;SDS011;51898;49.864;8.550;2023-06-22T06:58:46;13.73;;;12.30;;
10088;SDS011;51898;49.864;8.550;2023-06-22T07:01:48;12.60;;;11.40;;
10088;SDS011;51898;49.864;8.550;2023-06-22T07:04:50;13.57;;;12.27;;
10088;SDS011;51898;49.864;8.550;2023-06-22T07:07:52;13.90;;;12.50;;
10088;SDS011;51898;49.864;8.550;2023-06-22T07:10:54;14.30;;;12.80;;
10088;SDS011;51898;49.864;8.550;2023-06-22T07:13:56;13.67;;;12.37;;
10088;SDS011;51898;49.864;8.550;2023-06-22T07:16:58;14.37;;;13.07;;
10088;SDS011;51898;49.864;8.550;2023-06-22T07:20:00;15.35;;;12.93;;
10088;SDS011;51898;49.864;8.550;2023-06-22T07:23:11;14.17;;;12.87;;
10088;SDS011;51898;49.864;8.550;2023-06-22T07:26:12;13.67;;;12.33;;
10088;SDS011;51898;49.864;8.550;2023-06-22T07:29:14;13.60;;;12.20;;
10088;SDS011;51898;49.864;8.550;2023-06-22T07:32:16;13.60;;;12.13;;
10088;SDS011;51898;49.864;8.550;2023-06-22T07:35:17;14.93;;;12.20;;
10088;SDS011;51898;49.864;8.550;2023-06-22T07:38:19;14.20;;;12.67;;
10088;SDS011;51898;49.864;8.550;2023-06-22T07:41:21;14.53;;;12.30;;
10088;SDS011;51898;49.864;8.550;2023-06-22T07:44:23;14.43;;;13.13;;
10088;SDS011;51898;49.864;8.550;2023-06-22T07:47:25;14.47;;;12.07;;
10088;SDS011;51898;49.864;8.550;2023-06-22T07:50:29;14.00;;;12.70;;
10088;SDS011;51898;49.864;8.550;2023-06-22T07:53:31;13.50;;;12.20;;
10088;SDS011;51898;49.864;8.550;2023-06-22T07:56:33;14.97;;;12.50;;
10088;SDS011;51898;49.864;8.550;2023-06-22T07:59:34;13.53;;;12.30;;
10088;SDS011;51898;49.864;8.550;2023-06-22T08:02:36;15.43;;;12.70;;
10088;SDS011;51898;49.864;8.550;2023-06-22T08:05:38;14.97;;;13.50;;
10088;SDS011;51898;49.864;8.550;2023-06-22T08:08:40;15.00;;;13.47;;
10088;SDS011;51898;49.864;8.550;2023-06-22T08:11:41;13.47;;;12.07;;
10088;SDS011;51898;49.864;8.550;2023-06-22T08:14:43;14.30;;;12.90;;
10088;SDS011;51898;49.864;8.550;2023-06-22T08:17:47;13.53;;;12.30;;
10088;SDS011;51898;49.864;8.550;2023-06-22T08:20:49;15.30;;;12.80;;
10088;SDS011;51898;49.864;8.550;2023-06-22T08:23:51;13.67;;;12.47;;
10088;SDS011;51898;49.864;8.550;2023-06-22T08:26:52;13.90;;;12.60;;
10088;SDS011;51898;49.864;8.550;2023-06-22T08:29:54;13.57;;;12.37;;
10088;SDS011;51898;49.864;8.550;2023-06-22T08:32:59;15.67;;;12.33;;
10088;SDS011;51898;49.864;8.550;2023-06-22T08:36:01;13.83;;;11.97;;
10088;SDS011;51898;49.864;8.550;2023-06-22T08:39:03;14.13;;;12.30;;
10088;SDS011;51898;49.864;8.550;2023-06-22T08:42:05;13.57;;;12.23;;
10088;SDS011;51898;49.864;8.550;2023-06-22T08:45:07;14.10;;;12.70;;
10088;SDS011;51898;49.864;8.550;2023-06-22T08:48:09;12.23;;;11.13;;
10088;SDS011;51898;49.864;8.550;2023-06-22T08:51:11;13.50;;;12.10;;
10088;SDS011;51898;49.864;8.550;2023-06-22T08:54:12;12.87;;;11.57;;
10088;SDS011;51898;49.864;8.550;2023-06-22T08:57:15;13.13;;;11.80;;
10088;SDS011;51898;49.864;8.550;2023-06-22T09:00:17;14.10;;;12.03;;
10088;SDS011;51898;49.864;8.550;2023-06-22T09:03:21;11.60;;;10.60;;
10088;SDS011;51898;49.864;8.550;2023-06-22T09:06:23;13.10;;;11.90;;
10088;SDS011;51898;49.864;8.550;2023-06-22T09:09:25;12.90;;;11.70;;
10088;SDS011;51898;49.864;8.550;2023-06-22T09:12:27;12.40;;;11.30;;
10088;SDS011;51898;49.864;8.550;2023-06-22T09:15:31;11.50;;;9.93;;
10088;SDS011;51898;49.864;8.550;2023-06-22T09:18:34;11.37;;;10.27;;
10088;SDS011;51898;49.864;8.550;2023-06-22T09:21:37;13.27;;;11.87;;
10088;SDS011;51898;49.864;8.550;2023-06-22T09:24:39;11.23;;;10.30;;
10088;SDS011;51898;49.864;8.550;2023-06-22T09:27:40;12.83;;;11.13;;
10088;SDS011;51898;49.864;8.550;2023-06-22T09:30:42;11.68;;;10.57;;
10088;SDS011;51898;49.864;8.550;2023-06-22T09:33:46;12.03;;;10.93;;
10088;SDS011;51898;49.864;8.550;2023-06-22T09:36:48;12.13;;;10.98;;
10088;SDS011;51898;49.864;8.550;2023-06-22T09:39:50;13.00;;;11.10;;
10088;SDS011;51898;49.864;8.550;2023-06-22T09:42:51;11.93;;;10.90;;
10088;SDS011;51898;49.864;8.550;2023-06-22T09:45:53;11.65;;;10.60;;
10088;SDS011;51898;49.864;8.550;2023-06-22T09:48:55;13.87;;;11.17;;
10088;SDS011;51898;49.864;8.550;2023-06-22T09:51:56;11.95;;;10.75;;
10088;SDS011;51898;49.864;8.550;2023-06-22T09:54:58;12.40;;;11.30;;
10088;SDS011;51898;49.864;8.550;2023-06-22T09:58:00;20.00;;;10.95;;
10088;SDS011;51898;49.864;8.550;2023-06-22T10:01:02;12.25;;;10.73;;
10088;SDS011;51898;49.864;8.550;2023-06-22T10:04:04;11.63;;;10.55;;
10088;SDS011;51898;49.864;8.550;2023-06-22T10:07:06;11.48;;;10.45;;
10088;SDS011;51898;49.864;8.550;2023-06-22T10:10:08;11.05;;;9.95;;
10088;SDS011;51898;49.864;8.550;2023-06-22T10:13:10;11.18;;;10.27;;
10088;SDS011;51898;49.864;8.550;2023-06-22T10:16:12;12.20;;;11.18;;
10088;SDS011;51898;49.864;8.550;2023-06-22T10:19:14;12.15;;;10.98;;
10088;SDS011;51898;49.864;8.550;2023-06-22T10:22:15;11.55;;;10.45;;
10088;SDS011;51898;49.864;8.550;2023-06-22T10:25:17;13.00;;;11.70;;
10088;SDS011;51898;49.864;8.550;2023-06-22T10:28:19;11.68;;;10.57;;
10088;SDS011;51898;49.864;8.550;2023-06-22T10:31:20;12.07;;;10.88;;
10088;SDS011;51898;49.864;8.550;2023-06-22T10:34:22;11.00;;;10.10;;
10088;SDS011;51898;49.864;8.550;2023-06-22T10:37:24;11.40;;;10.40;;
10088;SDS011;51898;49.864;8.550;2023-06-22T10:40:26;12.68;;;11.57;;
10088;SDS011;51898;49.864;8.550;2023-06-22T10:43:27;11.40;;;10.30;;
10088;SDS011;51898;49.864;8.550;2023-06-22T10:46:29;14.95;;;11.35;;
10088;SDS011;51898;49.864;8.550;2023-06-22T10:49:31;11.98;;;10.80;;
10088;SDS011;51898;49.864;8.550;2023-06-22T10:52:32;13.45;;;12.20;;
10088;SDS011;51898;49.864;8.550;2023-06-22T10:55:34;12.80;;;11.52;;
10088;SDS011;51898;49.864;8.550;2023-06-22T10:58:56;11.48;;;10.48;;
10088;SDS011;51898;49.864;8.550;2023-06-22T11:01:58;11.88;;;10.77;;
10088;SDS011;51898;49.864;8.550;2023-06-22T11:05:00;12.35;;;11.20;;
10088;SDS011;51898;49.864;8.550;2023-06-22T11:08:02;11.70;;;10.52;;
10088;SDS011;51898;49.864;8.550;2023-06-22T11:11:04;11.98;;;10.95;;
10088;SDS011;51898;49.864;8.550;2023-06-22T11:14:05;11.60;;;10.60;;
10088;SDS011;51898;49.864;8.550;2023-06-22T11:17:07;16.88;;;11.80;;
10088;SDS011;51898;49.864;8.550;2023-06-22T11:20:09;12.52;;;11.43;;
10088;SDS011;51898;49.864;8.550;2023-06-22T11:23:12;12.68;;;11.43;;
10088;SDS011;51898;49.864;8.550;2023-06-22T11:26:13;13.02;;;11.73;;
10088;SDS011;51898;49.864;8.550;2023-06-22T11:29:15;12.75;;;11.68;;
10088;SDS011;51898;49.864;8.550;2023-06-22T11:32:36;15.13;;;11.43;;
10088;SDS011;51898;49.864;8.550;2023-06-22T11:35:38;12.35;;;11.23;;
10088;SDS011;51898;49.864;8.550;2023-06-22T11:38:40;13.05;;;11.90;;
10088;SDS011;51898;49.864;8.550;2023-06-22T11:41:42;12.20;;;10.98;;
10088;SDS011;51898;49.864;8.550;2023-06-22T11:44:44;13.20;;;12.00;;
10088;SDS011;51898;49.864;8.550;2023-06-22T11:47:46;12.38;;;11.13;;
10088;SDS011;51898;49.864;8.550;2023-06-22T11:50:47;12.60;;;11.43;;
10088;SDS011;51898;49.864;8.550;2023-06-22T11:53:49;12.88;;;11.73;;
10088;SDS011;51898;49.864;8.550;2023-06-22T11:56:51;14.40;;;12.02;;
10088;SDS011;51898;49.864;8.550;2023-06-22T11:59:52;12.43;;;11.35;;
10088;SDS011;51898;49.864;8.550;2023-06-22T12:02:54;12.60;;;11.32;;
10088;SDS011;51898;49.864;8.550;2023-06-22T12:05:59;11.60;;;10.48;;
10088;SDS011;51898;49.864;8.550;2023-06-22T12:09:01;12.70;;;10.88;;
10088;SDS011;51898;49.864;8.550;2023-06-22T12:12:05;12.80;;;11.52;;
10088;SDS011;51898;49.864;8.550;2023-06-22T12:15:08;12.20;;;11.10;;
10088;SDS011;51898;49.864;8.550;2023-06-22T12:18:11;11.98;;;10.60;;
10088;SDS011;51898;49.864;8.550;2023-06-22T12:21:13;11.02;;;9.90;;
10088;SDS011;51898;49.864;8.550;2023-06-22T12:24:14;11.07;;;10.05;;
10088;SDS011;51898;49.864;8.550;2023-06-22T12:27:16;12.40;;;11.10;;
10088;SDS011;51898;49.864;8.550;2023-06-22T12:30:21;11.88;;;10.77;;
10088;SDS011;51898;49.864;8.550;2023-06-22T12:33:23;11.93;;;10.75;;
10088;SDS011;51898;49.864;8.550;2023-06-22T12:36:25;12.43;;;10.60;;
10088;SDS011;51898;49.864;8.550;2023-06-22T12:39:26;11.93;;;10.75;;
10088;SDS011;51898;49.864;8.550;2023-06-22T12:42:28;12.23;;;11.15;;
10088;SDS011;51898;49.864;8.550;2023-06-22T12:45:30;12.38;;;11.07;;
10088;SDS011;51898;49.864;8.550;2023-06-22T12:48:34;12.63;;;10.20;;
10088;SDS011;51898;49.864;8.550;2023-06-22T12:51:42;10.40;;;9.30;;
10088;SDS011;51898;49.864;8.550;2023-06-22T12:54:45;15.82;;;9.75;;
10088;SDS011;51898;49.864;8.550;2023-06-22T12:57:56;11.00;;;9.90;;
10088;SDS011;51898;49.864;8.550;2023-06-22T13:00:57;12.43;;;9.07;;
10088;SDS011;51898;49.864;8.550;2023-06-22T13:03:59;11.00;;;9.90;;
10088;SDS011;51898;49.864;8.550;2023-06-22T13:07:01;14.82;;;10.30;;
10088;SDS011;51898;49.864;8.550;2023-06-22T13:10:18;15.00;;;9.52;;
10088;SDS011;51898;49.864;8.550;2023-06-22T13:13:20;11.20;;;9.20;;
10088;SDS011;51898;49.864;8.550;2023-06-22T13:16:22;10.10;;;9.07;;
10088;SDS011;51898;49.864;8.550;2023-06-22T13:19:23;9.70;;;8.60;;
10088;SDS011;51898;49.864;8.550;2023-06-22T13:22:29;13.15;;;9.23;;
10088;SDS011;51898;49.864;8.550;2023-06-22T13:25:32;9.23;;;8.30;;
10088;SDS011;51898;49.864;8.550;2023-06-22T13:28:34;9.63;;;8.70;;
10088;SDS011;51898;49.864;8.550;2023-06-22T13:31:36;11.35;;;9.32;;
10088;SDS011;51898;49.864;8.550;2023-06-22T13:34:38;14.55;;;10.10;;
10088;SDS011;51898;49.864;8.550;2023-06-22T13:37:40;11.20;;;9.50;;
10088;SDS011;51898;49.864;8.550;2023-06-22T13:40:41;9.85;;;8.75;;
10088;SDS011;51898;49.864;8.550;2023-06-22T13:43:43;10.57;;;9.45;;
10088;SDS011;51898;49.864;8.550;2023-06-22T13:46:45;13.95;;;8.57;;
10088;SDS011;51898;49.864;8.550;2023-06-22T13:49:47;9.30;;;8.02;;
10088;SDS011;51898;49.864;8.550;2023-06-22T13:52:48;9.45;;;8.45;;
10088;SDS011;51898;49.864;8.550;2023-06-22T13:55:50;12.40;;;9.05;;
10088;SDS011;51898;49.864;8.550;2023-06-22T13:58:52;14.25;;;8.77;;
10088;SDS011;51898;49.864;8.550;2023-06-22T14:01:53;9.38;;;8.43;;
10088;SDS011;51898;49.864;8.550;2023-06-22T14:04:55;11.60;;;7.90;;
10088;SDS011;51898;49.864;8.550;2023-06-22T14:07:57;12.27;;;7.53;;
10088;SDS011;51898;49.864;8.550;2023-06-22T14:10:59;11.60;;;7.70;;
10088;SDS011;51898;49.864;8.550;2023-06-22T14:14:01;9.75;;;8.32;;
10088;SDS011;51898;49.864;8.550;2023-06-22T14:17:03;10.52;;;8.02;;
10088;SDS011;51898;49.864;8.550;2023-06-22T14:20:05;8.63;;;7.05;;
10088;SDS011;51898;49.864;8.550;2023-06-22T14:23:09;13.05;;;7.50;;
10088;SDS011;51898;49.864;8.550;2023-06-22T14:26:11;11.13;;;8.23;;
10088;SDS011;51898;49.864;8.550;2023-06-22T14:29:12;12.63;;;8.93;;
10088;SDS011;51898;49.864;8.550;2023-06-22T14:32:14;16.58;;;7.72;;
10088;SDS011;51898;49.864;8.550;2023-06-22T14:35:16;11.85;;;8.43;;
10088;SDS011;51898;49.864;8.550;2023-06-22T14:38:17;9.90;;;8.20;;
10088;SDS011;51898;49.864;8.550;2023-06-22T14:41:19;11.10;;;7.88;;
10088;SDS011;51898;49.864;8.550;2023-06-22T14:44:21;19.20;;;9.57;;
10088;SDS011;51898;49.864;8.550;2023-06-22T14:47:23;12.43;;;7.68;;
10088;SDS011;51898;49.864;8.550;2023-06-22T14:50:25;19.17;;;8.60;;
10088;SDS011;51898;49.864;8.550;2023-06-22T14:53:26;12.73;;;7.50;;
10088;SDS011;51898;49.864;8.550;2023-06-22T14:56:28;9.00;;;7.57;;
10088;SDS011;51898;49.864;8.550;2023-06-22T14:59:32;9.25;;;7.72;;
10088;SDS011;51898;49.864;8.550;2023-06-22T15:02:34;16.60;;;8.55;;
10088;SDS011;51898;49.864;8.550;2023-06-22T15:05:36;17.45;;;9.07;;
10088;SDS011;51898;49.864;8.550;2023-06-22T15:08:38;11.35;;;7.63;;
10088;SDS011;51898;49.864;8.550;2023-06-22T15:11:41;11.75;;;8.70;;
10088;SDS011;51898;49.864;8.550;2023-06-22T15:14:43;21.30;;;8.48;;
10088;SDS011;51898;49.864;8.550;2023-06-22T15:17:45;15.10;;;8.15;;
10088;SDS011;51898;49.864;8.550;2023-06-22T15:20:46;8.32;;;7.50;;
10088;SDS011;51898;49.864;8.550;2023-06-22T15:23:50;17.48;;;7.85;;
10088;SDS011;51898;49.864;8.550;2023-06-22T15:26:52;9.40;;;8.32;;
10088;SDS011;51898;49.864;8.550;2023-06-22T15:29:54;12.10;;;8.38;;
10088;SDS011;51898;49.864;8.550;2023-06-22T15:32:55;11.65;;;7.47;;
10088;SDS011;51898;49.864;8.550;2023-06-22T15:35:57;9.23;;;7.43;;
10088;SDS011;51898;49.864;8.550;2023-06-22T15:39:04;11.75;;;8.13;;
10088;SDS011;51898;49.864;8.550;2023-06-22T15:42:06;11.30;;;9.32;;
10088;SDS011;51898;49.864;8.550;2023-06-22T15:45:07;9.65;;;8.50;;
10088;SDS011;51898;49.864;8.550;2023-06-22T15:48:09;8.57;;;7.75;;
10088;SDS011;51898;49.864;8.550;2023-06-22T15:51:11;12.60;;;8.80;;
10088;SDS011;51898;49.864;8.550;2023-06-22T15:54:13;16.33;;;8.65;;
10088;SDS011;51898;49.864;8.550;2023-06-22T15:57:15;10.85;;;9.57;;
10088;SDS011;51898;49.864;8.550;2023-06-22T16:00:17;11.35;;;8.95;;
10088;SDS011;51898;49.864;8.550;2023-06-22T16:03:19;12.82;;;9.00;;
10088;SDS011;51898;49.864;8.550;2023-06-22T16:06:21;12.90;;;8.90;;
10088;SDS011;51898;49.864;8.550;2023-06-22T16:09:23;15.98;;;8.93;;
10088;SDS011;51898;49.864;8.550;2023-06-22T16:12:24;9.43;;;8.27;;
10088;SDS011;51898;49.864;8.550;2023-06-22T16:15:28;53.75;;;8.85;;
10088;SDS011;51898;49.864;8.550;2023-06-22T16:18:29;8.23;;;5.13;;
10088;SDS011;51898;49.864;8.550;2023-06-22T16:21:31;7.00;;;4.67;;
10088;SDS011;51898;49.864;8.550;2023-06-22T16:24:33;6.43;;;4.80;;
10088;SDS011;51898;49.864;8.550;2023-06-22T16:27:34;7.77;;;4.17;;
10088;SDS011;51898;49.864;8.550;2023-06-22T16:30:36;11.07;;;5.10;;
10088;SDS011;51898;49.864;8.550;2023-06-22T16:33:38;13.20;;;5.70;;
10088;SDS011;51898;49.864;8.550;2023-06-22T16:36:39;10.33;;;5.20;;
10088;SDS011;51898;49.864;8.550;2023-06-22T16:39:41;10.00;;;5.10;;
10088;SDS011;51898;49.864;8.550;2023-06-22T16:42:44;12.53;;;4.70;;
10088;SDS011;51898;49.864;8.550;2023-06-22T16:45:46;7.40;;;4.53;;
10088;SDS011;51898;49.864;8.550;2023-06-22T16:48:51;12.77;;;5.80;;
10088;SDS011;51898;49.864;8.550;2023-06-22T16:51:53;9.27;;;6.30;;
10088;SDS011;51898;49.864;8.550;2023-06-22T16:54:55;7.27;;;5.50;;
10088;SDS011;51898;49.864;8.550;2023-06-22T16:58:02;11.00;;;6.10;;
10088;SDS011;51898;49.864;8.550;2023-06-22T17:01:06;8.73;;;6.03;;
10088;SDS011;51898;49.864;8.550;2023-06-22T17:04:11;12.23;;;6.47;;
10088;SDS011;51898;49.864;8.550;2023-06-22T17:07:18;11.90;;;6.70;;
10088;SDS011;51898;49.864;8.550;2023-06-22T17:10:21;10.73;;;6.67;;
10088;SDS011;51898;49.864;8.550;2023-06-22T17:13:23;18.30;;;7.67;;
10088;SDS011;51898;49.864;8.550;2023-06-22T17:16:25;14.10;;;7.47;;
10088;SDS011;51898;49.864;8.550;2023-06-22T17:19:32;10.67;;;6.83;;
10088;SDS011;51898;49.864;8.550;2023-06-22T17:22:34;12.40;;;6.30;;
10088;SDS011;51898;49.864;8.550;2023-06-22T17:25:39;12.80;;;7.57;;
10088;SDS011;51898;49.864;8.550;2023-06-22T17:28:47;14.07;;;6.50;;
10088;SDS011;51898;49.864;8.550;2023-06-22T17:31:52;13.27;;;7.47;;
10088;SDS011;51898;49.864;8.550;2023-06-22T17:34:57;14.30;;;6.23;;
10088;SDS011;51898;49.864;8.550;2023-06-22T17:37:58;14.80;;;5.93;;
10088;SDS011;51898;49.864;8.550;2023-06-22T17:41:06;10.50;;;6.00;;
10088;SDS011;51898;49.864;8.550;2023-06-22T17:44:10;9.53;;;5.73;;
10088;SDS011;51898;49.864;8.550;2023-06-22T17:47:14;8.80;;;5.20;;
10088;SDS011;51898;49.864;8.550;2023-06-22T17:50:24;11.10;;;4.80;;
10088;SDS011;51898;49.864;8.550;2023-06-22T17:53:26;9.00;;;5.07;;
10088;SDS011;51898;49.864;8.550;2023-06-22T17:56:29;9.20;;;5.80;;
10088;SDS011;51898;49.864;8.550;2023-06-22T17:59:31;10.03;;;4.90;;